sensor_id;sensor_type;location;lat;lon;timestamp;P1;durP1;ratioP1;P2;durP2;ratioP2
17504;SDS011;8870;50.950;11.762;2024-03-06T00:01:28;23.08;;;17.85;;
17504;SDS011;8870;50.950;11.762;2024-03-06T00:07:00;22.38;;;17.75;;
17504;SDS011;8870;50.950;11.762;2024-03-06T00:12:21;18.42;;;16.08;;
17504;SDS011;8870;50.950;11.762;2024-03-06T00:17:52;19.10;;;15.57;;
17504;SDS011;8870;50.950;11.762;2024-03-06T00:23:10;18.13;;;14.65;;
17504;SDS011;8870;50.950;11.762;2024-03-06T00:28:44;19.58;;;13.98;;
17504;SDS011;8870;50.950;11.762;2024-03-06T00:34:02;19.73;;;14.70;;
17504;SDS011;8870;50.950;11.762;2024-03-06T00:39:35;16.10;;;13.68;;
17504;SDS011;8870;50.950;11.762;2024-03-06T00:45:10;16.95;;;13.23;;
17504;SDS011;8870;50.950;11.762;2024-03-06T00:50:29;16.80;;;13.57;;
17504;SDS011;8870;50.950;11.762;2024-03-06T00:56:02;16.20;;;12.85;;
17504;SDS011;8870;50.950;11.762;2024-03-06T01:01:23;16.33;;;12.60;;
17504;SDS011;8870;50.950;11.762;2024-03-06T01:06:54;18.70;;;12.52;;
17504;SDS011;8870;50.950;11.762;2024-03-06T01:12:13;18.13;;;11.85;;
17504;SDS011;8870;50.950;11.762;2024-03-06T01:17:47;15.38;;;11.77;;
17504;SDS011;8870;50.950;11.762;2024-03-06T01:23:05;14.57;;;11.82;;
17504;SDS011;8870;50.950;11.762;2024-03-06T01:28:38;15.57;;;11.35;;
17504;SDS011;8870;50.950;11.762;2024-03-06T01:33:59;14.73;;;11.18;;
17504;SDS011;8870;50.950;11.762;2024-03-06T01:39:30;18.02;;;10.98;;
17504;SDS011;8870;50.950;11.762;2024-03-06T01:45:02;16.63;;;10.57;;
17504;SDS011;8870;50.950;11.762;2024-03-06T01:50:24;13.80;;;10.20;;
17504;SDS011;8870;50.950;11.762;2024-03-06T01:55:55;16.40;;;10.73;;
17504;SDS011;8870;50.950;11.762;2024-03-06T02:01:15;14.40;;;10.73;;
17504;SDS011;8870;50.950;11.762;2024-03-06T02:06:50;11.50;;;10.13;;
17504;SDS011;8870;50.950;11.762;2024-03-06T02:12:09;14.18;;;11.23;;
17504;SDS011;8870;50.950;11.762;2024-03-06T02:17:40;12.63;;;10.70;;
17504;SDS011;8870;50.950;11.762;2024-03-06T02:23:01;21.02;;;11.40;;
17504;SDS011;8870;50.950;11.762;2024-03-06T02:28:32;17.00;;;11.15;;
17504;SDS011;8870;50.950;11.762;2024-03-06T02:33:51;15.15;;;10.77;;
17504;SDS011;8870;50.950;11.762;2024-03-06T02:39:26;13.13;;;10.65;;
17504;SDS011;8870;50.950;11.762;2024-03-06T02:44:57;15.15;;;11.00;;
17504;SDS011;8870;50.950;11.762;2024-03-06T02:50:15;14.32;;;11.10;;
17504;SDS011;8870;50.950;11.762;2024-03-06T02:55:50;19.30;;;12.18;;
17504;SDS011;8870;50.950;11.762;2024-03-06T03:01:09;14.57;;;11.82;;
17504;SDS011;8870;50.950;11.762;2024-03-06T03:06:39;16.50;;;11.68;;
17504;SDS011;8870;50.950;11.762;2024-03-06T03:12:00;14.68;;;11.55;;
17504;SDS011;8870;50.950;11.762;2024-03-06T03:17:32;16.02;;;12.10;;
17504;SDS011;8870;50.950;11.762;2024-03-06T03:22:51;14.82;;;11.95;;
17504;SDS011;8870;50.950;11.762;2024-03-06T03:28:26;18.05;;;11.63;;
17504;SDS011;8870;50.950;11.762;2024-03-06T03:33:45;16.48;;;12.05;;
17504;SDS011;8870;50.950;11.762;2024-03-06T03:39:15;14.10;;;12.23;;
17504;SDS011;8870;50.950;11.762;2024-03-06T03:44:51;16.60;;;13.07;;
17504;SDS011;8870;50.950;11.762;2024-03-06T03:50:09;17.75;;;12.90;;
17504;SDS011;8870;50.950;11.762;2024-03-06T03:55:40;15.80;;;13.75;;
17504;SDS011;8870;50.950;11.762;2024-03-06T04:01:01;17.52;;;14.10;;
17504;SDS011;8870;50.950;11.762;2024-03-06T04:06:32;18.70;;;14.27;;
17504;SDS011;8870;50.950;11.762;2024-03-06T04:11:50;17.35;;;13.88;;
17504;SDS011;8870;50.950;11.762;2024-03-06T04:17:24;18.05;;;14.27;;
17504;SDS011;8870;50.950;11.762;2024-03-06T04:22:42;17.65;;;14.52;;
17504;SDS011;8870;50.950;11.762;2024-03-06T04:28:14;19.08;;;14.45;;
17504;SDS011;8870;50.950;11.762;2024-03-06T04:33:48;18.67;;;15.02;;
17504;SDS011;8870;50.950;11.762;2024-03-06T04:39:13;18.98;;;15.77;;
17504;SDS011;8870;50.950;11.762;2024-03-06T04:44:45;17.08;;;15.00;;
17504;SDS011;8870;50.950;11.762;2024-03-06T04:50:07;16.80;;;14.60;;
17504;SDS011;8870;50.950;11.762;2024-03-06T04:55:39;21.52;;;15.23;;
17504;SDS011;8870;50.950;11.762;2024-03-06T05:00:58;20.02;;;15.07;;
17504;SDS011;8870;50.950;11.762;2024-03-06T05:06:31;18.67;;;14.70;;
17504;SDS011;8870;50.950;11.762;2024-03-06T05:12:04;20.02;;;15.27;;
17504;SDS011;8870;50.950;11.762;2024-03-06T05:17:50;19.83;;;15.18;;
17504;SDS011;8870;50.950;11.762;2024-03-06T05:23:27;18.30;;;15.10;;
17504;SDS011;8870;50.950;11.762;2024-03-06T05:29:12;18.70;;;14.48;;
17504;SDS011;8870;50.950;11.762;2024-03-06T05:34:45;23.95;;;16.13;;
17504;SDS011;8870;50.950;11.762;2024-03-06T05:40:32;18.42;;;15.57;;
17504;SDS011;8870;50.950;11.762;2024-03-06T05:46:20;19.53;;;14.83;;
17504;SDS011;8870;50.950;11.762;2024-03-06T05:51:53;20.70;;;15.15;;
17504;SDS011;8870;50.950;11.762;2024-03-06T05:57:42;21.77;;;16.27;;
17504;SDS011;8870;50.950;11.762;2024-03-06T06:03:21;18.63;;;15.45;;
17504;SDS011;8870;50.950;11.762;2024-03-06T06:08:52;19.27;;;15.90;;
17504;SDS011;8870;50.950;11.762;2024-03-06T06:14:13;21.25;;;15.50;;
17504;SDS011;8870;50.950;11.762;2024-03-06T06:19:44;18.33;;;14.85;;
17504;SDS011;8870;50.950;11.762;2024-03-06T06:25:03;18.95;;;15.13;;
17504;SDS011;8870;50.950;11.762;2024-03-06T06:30:37;18.40;;;15.05;;
17504;SDS011;8870;50.950;11.762;2024-03-06T06:35:56;21.23;;;15.50;;
17504;SDS011;8870;50.950;11.762;2024-03-06T06:41:26;21.25;;;15.07;;
17504;SDS011;8870;50.950;11.762;2024-03-06T06:47:01;18.33;;;15.35;;
17504;SDS011;8870;50.950;11.762;2024-03-06T06:52:20;18.92;;;15.50;;
17504;SDS011;8870;50.950;11.762;2024-03-06T06:57:52;23.85;;;16.35;;
17504;SDS011;8870;50.950;11.762;2024-03-06T07:03:13;20.50;;;16.30;;
17504;SDS011;8870;50.950;11.762;2024-03-06T07:08:51;23.27;;;18.23;;
17504;SDS011;8870;50.950;11.762;2024-03-06T07:14:09;22.90;;;18.38;;
17504;SDS011;8870;50.950;11.762;2024-03-06T07:19:42;24.15;;;19.05;;
17504;SDS011;8870;50.950;11.762;2024-03-06T07:25:01;27.10;;;19.95;;
17504;SDS011;8870;50.950;11.762;2024-03-06T07:30:32;19.98;;;17.17;;
17504;SDS011;8870;50.950;11.762;2024-03-06T07:35:54;20.75;;;18.27;;
17504;SDS011;8870;50.950;11.762;2024-03-06T07:41:25;23.95;;;17.92;;
17504;SDS011;8870;50.950;11.762;2024-03-06T07:46:56;24.35;;;18.73;;
17504;SDS011;8870;50.950;11.762;2024-03-06T07:52:17;23.30;;;18.65;;
17504;SDS011;8870;50.950;11.762;2024-03-06T07:57:48;23.50;;;18.67;;
17504;SDS011;8870;50.950;11.762;2024-03-06T08:03:07;25.25;;;17.83;;
17504;SDS011;8870;50.950;11.762;2024-03-06T08:08:42;22.27;;;18.42;;
17504;SDS011;8870;50.950;11.762;2024-03-06T08:14:02;23.63;;;19.42;;
17504;SDS011;8870;50.950;11.762;2024-03-06T08:19:34;24.95;;;20.27;;
17504;SDS011;8870;50.950;11.762;2024-03-06T08:24:54;23.63;;;19.15;;
17504;SDS011;8870;50.950;11.762;2024-03-06T08:30:25;25.58;;;20.08;;
17504;SDS011;8870;50.950;11.762;2024-03-06T08:35:45;22.95;;;18.63;;
17504;SDS011;8870;50.950;11.762;2024-03-06T08:41:18;21.33;;;18.15;;
17504;SDS011;8870;50.950;11.762;2024-03-06T08:46:37;23.85;;;17.20;;
17504;SDS011;8870;50.950;11.762;2024-03-06T08:52:08;20.90;;;17.17;;
17504;SDS011;8870;50.950;11.762;2024-03-06T08:57:28;21.05;;;17.25;;
17504;SDS011;8870;50.950;11.762;2024-03-06T09:02:59;21.88;;;17.98;;
17504;SDS011;8870;50.950;11.762;2024-03-06T09:08:18;21.25;;;18.45;;
17504;SDS011;8870;50.950;11.762;2024-03-06T09:13:51;21.45;;;17.35;;
17504;SDS011;8870;50.950;11.762;2024-03-06T09:19:12;24.83;;;18.88;;
17504;SDS011;8870;50.950;11.762;2024-03-06T09:24:44;21.92;;;18.98;;
17504;SDS011;8870;50.950;11.762;2024-03-06T09:30:06;26.10;;;17.52;;
17504;SDS011;8870;50.950;11.762;2024-03-06T09:35:39;23.48;;;18.83;;
17504;SDS011;8870;50.950;11.762;2024-03-06T09:41:00;19.98;;;17.65;;
17504;SDS011;8870;50.950;11.762;2024-03-06T09:46:34;23.13;;;18.33;;
17504;SDS011;8870;50.950;11.762;2024-03-06T09:51:53;22.58;;;18.80;;
17504;SDS011;8870;50.950;11.762;2024-03-06T09:57:26;23.88;;;18.80;;
17504;SDS011;8870;50.950;11.762;2024-03-06T10:02:48;24.65;;;20.10;;
17504;SDS011;8870;50.950;11.762;2024-03-06T10:08:27;24.98;;;18.92;;
17504;SDS011;8870;50.950;11.762;2024-03-06T10:13:45;25.17;;;20.77;;
17504;SDS011;8870;50.950;11.762;2024-03-06T10:19:19;25.00;;;20.40;;
17504;SDS011;8870;50.950;11.762;2024-03-06T10:24:37;22.55;;;18.73;;
17504;SDS011;8870;50.950;11.762;2024-03-06T10:30:10;23.40;;;18.33;;
17504;SDS011;8870;50.950;11.762;2024-03-06T10:35:33;22.20;;;18.65;;
17504;SDS011;8870;50.950;11.762;2024-03-06T10:41:04;20.10;;;17.38;;
17504;SDS011;8870;50.950;11.762;2024-03-06T10:46:29;22.67;;;17.00;;
17504;SDS011;8870;50.950;11.762;2024-03-06T10:52:04;19.77;;;16.92;;
17504;SDS011;8870;50.950;11.762;2024-03-06T10:57:23;23.30;;;17.48;;
17504;SDS011;8870;50.950;11.762;2024-03-06T11:02:55;21.77;;;16.00;;
17504;SDS011;8870;50.950;11.762;2024-03-06T11:08:17;20.60;;;14.73;;
17504;SDS011;8870;50.950;11.762;2024-03-06T11:13:53;17.92;;;13.55;;
17504;SDS011;8870;50.950;11.762;2024-03-06T11:19:12;18.02;;;14.30;;
17504;SDS011;8870;50.950;11.762;2024-03-06T11:24:45;16.00;;;12.43;;
17504;SDS011;8870;50.950;11.762;2024-03-06T11:30:06;21.00;;;13.70;;
17504;SDS011;8870;50.950;11.762;2024-03-06T11:35:38;19.00;;;12.93;;
17504;SDS011;8870;50.950;11.762;2024-03-06T11:41:01;16.38;;;12.25;;
17504;SDS011;8870;50.950;11.762;2024-03-06T11:46:42;14.02;;;10.95;;
17504;SDS011;8870;50.950;11.762;2024-03-06T11:52:01;17.02;;;11.43;;
17504;SDS011;8870;50.950;11.762;2024-03-06T11:57:37;16.85;;;11.27;;
17504;SDS011;8870;50.950;11.762;2024-03-06T12:02:57;15.13;;;10.07;;
17504;SDS011;8870;50.950;11.762;2024-03-06T12:08:29;14.00;;;10.07;;
17504;SDS011;8870;50.950;11.762;2024-03-06T12:13:50;12.80;;;9.95;;
17504;SDS011;8870;50.950;11.762;2024-03-06T12:19:23;12.60;;;11.00;;
17504;SDS011;8870;50.950;11.762;2024-03-06T12:24:43;13.23;;;10.48;;
17504;SDS011;8870;50.950;11.762;2024-03-06T12:30:18;14.18;;;10.70;;
17504;SDS011;8870;50.950;11.762;2024-03-06T12:35:38;12.98;;;11.57;;
17504;SDS011;8870;50.950;11.762;2024-03-06T12:41:10;12.85;;;11.48;;
17504;SDS011;8870;50.950;11.762;2024-03-06T12:46:43;15.00;;;11.43;;
17504;SDS011;8870;50.950;11.762;2024-03-06T12:52:02;14.00;;;11.40;;
17504;SDS011;8870;50.950;11.762;2024-03-06T12:57:33;14.10;;;11.50;;
17504;SDS011;8870;50.950;11.762;2024-03-06T13:02:53;12.98;;;10.80;;
17504;SDS011;8870;50.950;11.762;2024-03-06T13:08:25;14.02;;;11.00;;
17504;SDS011;8870;50.950;11.762;2024-03-06T13:13:43;13.07;;;9.38;;
17504;SDS011;8870;50.950;11.762;2024-03-06T13:19:17;14.75;;;10.00;;
17504;SDS011;8870;50.950;11.762;2024-03-06T13:24:37;12.48;;;9.80;;
17504;SDS011;8870;50.950;11.762;2024-03-06T13:30:08;10.45;;;9.15;;
17504;SDS011;8870;50.950;11.762;2024-03-06T13:35:29;10.73;;;9.35;;
17504;SDS011;8870;50.950;11.762;2024-03-06T13:41:02;14.50;;;9.50;;
17504;SDS011;8870;50.950;11.762;2024-03-06T13:46:20;11.43;;;9.60;;
17504;SDS011;8870;50.950;11.762;2024-03-06T13:51:53;12.55;;;9.43;;
17504;SDS011;8870;50.950;11.762;2024-03-06T13:57:12;10.10;;;8.45;;
17504;SDS011;8870;50.950;11.762;2024-03-06T14:02:44;10.73;;;8.95;;
17504;SDS011;8870;50.950;11.762;2024-03-06T14:08:06;11.05;;;9.13;;
17504;SDS011;8870;50.950;11.762;2024-03-06T14:13:39;11.07;;;9.35;;
17504;SDS011;8870;50.950;11.762;2024-03-06T14:18:58;16.08;;;9.60;;
17504;SDS011;8870;50.950;11.762;2024-03-06T14:24:32;11.93;;;9.77;;
17504;SDS011;8870;50.950;11.762;2024-03-06T14:29:51;13.38;;;9.90;;
17504;SDS011;8870;50.950;11.762;2024-03-06T14:35:24;12.80;;;9.30;;
17504;SDS011;8870;50.950;11.762;2024-03-06T14:40:45;12.75;;;9.70;;
17504;SDS011;8870;50.950;11.762;2024-03-06T14:46:17;11.32;;;10.13;;
17504;SDS011;8870;50.950;11.762;2024-03-06T14:51:35;14.38;;;9.85;;
17504;SDS011;8870;50.950;11.762;2024-03-06T14:57:11;13.40;;;10.40;;
17504;SDS011;8870;50.950;11.762;2024-03-06T15:02:30;14.88;;;11.40;;
17504;SDS011;8870;50.950;11.762;2024-03-06T15:08:02;14.63;;;12.40;;
17504;SDS011;8870;50.950;11.762;2024-03-06T15:13:36;13.88;;;11.40;;
17504;SDS011;8870;50.950;11.762;2024-03-06T15:18:55;13.82;;;12.30;;
17504;SDS011;8870;50.950;11.762;2024-03-06T15:24:26;13.80;;;12.35;;
17504;SDS011;8870;50.950;11.762;2024-03-06T15:29:47;14.45;;;10.98;;
17504;SDS011;8870;50.950;11.762;2024-03-06T15:35:18;12.00;;;10.80;;
17504;SDS011;8870;50.950;11.762;2024-03-06T15:40:38;10.50;;;9.40;;
17504;SDS011;8870;50.950;11.762;2024-03-06T15:46:14;10.77;;;9.05;;
17504;SDS011;8870;50.950;11.762;2024-03-06T15:51:33;13.93;;;9.80;;
17504;SDS011;8870;50.950;11.762;2024-03-06T15:57:04;13.15;;;9.30;;
17504;SDS011;8870;50.950;11.762;2024-03-06T16:02:25;12.55;;;9.35;;
17504;SDS011;8870;50.950;11.762;2024-03-06T16:07:58;10.15;;;9.00;;
17504;SDS011;8870;50.950;11.762;2024-03-06T16:13:18;10.63;;;9.52;;
17504;SDS011;8870;50.950;11.762;2024-03-06T16:18:51;12.43;;;9.30;;
17504;SDS011;8870;50.950;11.762;2024-03-06T16:24:10;11.25;;;10.07;;
17504;SDS011;8870;50.950;11.762;2024-03-06T16:29:41;11.10;;;9.95;;
17504;SDS011;8870;50.950;11.762;2024-03-06T16:35:02;11.93;;;9.85;;
17504;SDS011;8870;50.950;11.762;2024-03-06T16:40:35;12.43;;;9.77;;
17504;SDS011;8870;50.950;11.762;2024-03-06T16:46:08;14.68;;;9.63;;
17504;SDS011;8870;50.950;11.762;2024-03-06T16:51:29;11.10;;;9.70;;
17504;SDS011;8870;50.950;11.762;2024-03-06T16:57:00;12.27;;;9.25;;
17504;SDS011;8870;50.950;11.762;2024-03-06T17:02:18;15.35;;;10.38;;
17504;SDS011;8870;50.950;11.762;2024-03-06T17:07:51;11.85;;;9.55;;
17504;SDS011;8870;50.950;11.762;2024-03-06T17:13:10;10.73;;;9.05;;
17504;SDS011;8870;50.950;11.762;2024-03-06T17:18:41;12.77;;;10.68;;
17504;SDS011;8870;50.950;11.762;2024-03-06T17:24:02;11.35;;;9.60;;
17504;SDS011;8870;50.950;11.762;2024-03-06T17:29:34;10.80;;;8.46;;
17504;SDS011;8870;50.950;11.762;2024-03-06T17:34:52;10.27;;;9.00;;
17504;SDS011;8870;50.950;11.762;2024-03-06T17:40:27;9.48;;;8.48;;
17504;SDS011;8870;50.950;11.762;2024-03-06T17:45:59;9.80;;;8.80;;
17504;SDS011;8870;50.950;11.762;2024-03-06T17:51:17;10.48;;;8.43;;
17504;SDS011;8870;50.950;11.762;2024-03-06T17:56:50;12.27;;;8.65;;
17504;SDS011;8870;50.950;11.762;2024-03-06T18:02:13;9.93;;;8.55;;
17504;SDS011;8870;50.950;11.762;2024-03-06T18:07:44;9.85;;;8.30;;
17504;SDS011;8870;50.950;11.762;2024-03-06T18:13:05;11.30;;;8.05;;
17504;SDS011;8870;50.950;11.762;2024-03-06T18:18:36;10.65;;;8.88;;
17504;SDS011;8870;50.950;11.762;2024-03-06T18:23:55;12.75;;;8.98;;
17504;SDS011;8870;50.950;11.762;2024-03-06T18:29:31;11.30;;;8.80;;
17504;SDS011;8870;50.950;11.762;2024-03-06T18:34:50;9.38;;;8.38;;
17504;SDS011;8870;50.950;11.762;2024-03-06T18:40:23;9.82;;;7.22;;
17504;SDS011;8870;50.950;11.762;2024-03-06T18:45:44;9.93;;;6.97;;
17504;SDS011;8870;50.950;11.762;2024-03-06T18:51:16;7.00;;;5.80;;
17504;SDS011;8870;50.950;11.762;2024-03-06T18:56:34;6.57;;;5.97;;
17504;SDS011;8870;50.950;11.762;2024-03-06T19:02:08;6.03;;;5.43;;
17504;SDS011;8870;50.950;11.762;2024-03-06T19:07:27;6.30;;;5.07;;
17504;SDS011;8870;50.950;11.762;2024-03-06T19:12:59;5.53;;;4.88;;
17504;SDS011;8870;50.950;11.762;2024-03-06T19:18:23;5.30;;;4.80;;
17504;SDS011;8870;50.950;11.762;2024-03-06T19:23:56;9.68;;;4.88;;
17504;SDS011;8870;50.950;11.762;2024-03-06T19:29:16;5.05;;;4.45;;
17504;SDS011;8870;50.950;11.762;2024-03-06T19:34:53;5.03;;;4.40;;
17504;SDS011;8870;50.950;11.762;2024-03-06T19:40:13;5.00;;;4.50;;
17504;SDS011;8870;50.950;11.762;2024-03-06T19:45:46;5.68;;;4.65;;
17504;SDS011;8870;50.950;11.762;2024-03-06T19:51:07;4.78;;;4.35;;
17504;SDS011;8870;50.950;11.762;2024-03-06T19:56:39;5.63;;;5.03;;
17504;SDS011;8870;50.950;11.762;2024-03-06T20:01:59;5.03;;;4.50;;
17504;SDS011;8870;50.950;11.762;2024-03-06T20:07:29;7.28;;;4.90;;
17504;SDS011;8870;50.950;11.762;2024-03-06T20:12:55;6.72;;;4.70;;
17504;SDS011;8870;50.950;11.762;2024-03-06T20:18:16;5.22;;;4.72;;
17504;SDS011;8870;50.950;11.762;2024-03-06T20:23:46;6.18;;;4.95;;
17504;SDS011;8870;50.950;11.762;2024-03-06T20:29:04;5.72;;;4.90;;
17504;SDS011;8870;50.950;11.762;2024-03-06T20:34:29;4.72;;;4.25;;
17504;SDS011;8870;50.950;11.762;2024-03-06T20:39:50;5.57;;;4.90;;
17504;SDS011;8870;50.950;11.762;2024-03-06T20:45:21;5.05;;;4.55;;
17504;SDS011;8870;50.950;11.762;2024-03-06T20:50:39;5.28;;;4.50;;
17504;SDS011;8870;50.950;11.762;2024-03-06T20:56:14;5.25;;;4.72;;
17504;SDS011;8870;50.950;11.762;2024-03-06T21:01:32;6.63;;;4.60;;
17504;SDS011;8870;50.950;11.762;2024-03-06T21:07:03;5.18;;;4.68;;
17504;SDS011;8870;50.950;11.762;2024-03-06T21:12:26;4.60;;;4.20;;
17504;SDS011;8870;50.950;11.762;2024-03-06T21:17:57;4.97;;;4.47;;
17504;SDS011;8870;50.950;11.762;2024-03-06T21:23:16;4.80;;;4.30;;
17504;SDS011;8870;50.950;11.762;2024-03-06T21:28:50;5.65;;;4.75;;
17504;SDS011;8870;50.950;11.762;2024-03-06T21:34:09;4.57;;;4.10;;
17504;SDS011;8870;50.950;11.762;2024-03-06T21:39:40;5.47;;;4.22;;
17504;SDS011;8870;50.950;11.762;2024-03-06T21:45:01;4.97;;;4.47;;
17504;SDS011;8870;50.950;11.762;2024-03-06T21:50:33;4.82;;;4.32;;
17504;SDS011;8870;50.950;11.762;2024-03-06T21:55:51;5.88;;;4.93;;
17504;SDS011;8870;50.950;11.762;2024-03-06T22:01:25;5.88;;;4.50;;
17504;SDS011;8870;50.950;11.762;2024-03-06T22:06:44;6.47;;;5.88;;
17504;SDS011;8870;50.950;11.762;2024-03-06T22:12:15;9.02;;;7.22;;
17504;SDS011;8870;50.950;11.762;2024-03-06T22:17:36;7.22;;;6.53;;
17504;SDS011;8870;50.950;11.762;2024-03-06T22:23:07;6.93;;;6.20;;
17504;SDS011;8870;50.950;11.762;2024-03-06T22:28:26;8.10;;;7.30;;
17504;SDS011;8870;50.950;11.762;2024-03-06T22:33:59;6.70;;;6.00;;
17504;SDS011;8870;50.950;11.762;2024-03-06T22:39:19;8.82;;;6.50;;
17504;SDS011;8870;50.950;11.762;2024-03-06T22:44:50;6.28;;;5.65;;
17504;SDS011;8870;50.950;11.762;2024-03-06T22:50:11;7.55;;;6.10;;
17504;SDS011;8870;50.950;11.762;2024-03-06T22:55:42;7.70;;;6.18;;
17504;SDS011;8870;50.950;11.762;2024-03-06T23:01:00;6.07;;;5.47;;
17504;SDS011;8870;50.950;11.762;2024-03-06T23:06:33;6.97;;;5.97;;
17504;SDS011;8870;50.950;11.762;2024-03-06T23:11:52;9.38;;;5.88;;
17504;SDS011;8870;50.950;11.762;2024-03-06T23:17:24;6.63;;;6.03;;
17504;SDS011;8870;50.950;11.762;2024-03-06T23:22:45;7.97;;;6.03;;
17504;SDS011;8870;50.950;11.762;2024-03-06T23:28:16;7.82;;;6.30;;
17504;SDS011;8870;50.950;11.762;2024-03-06T23:33:34;7.50;;;6.30;;
17504;SDS011;8870;50.950;11.762;2024-03-06T23:39:07;9.73;;;6.20;;
17504;SDS011;8870;50.950;11.762;2024-03-06T23:44:27;6.85;;;6.18;;
17504;SDS011;8870;50.950;11.762;2024-03-06T23:49:58;6.97;;;6.20;;
17504;SDS011;8870;50.950;11.762;2024-03-06T23:55:19;7.03;;;6.30;;
